Airfield :
LOGIN :

Register | Disclaimer

   EN    FR    IT 

 










Legend :    VFR   Marginal VFR   IFR   Intensive IFR   Very Intensive IFR
Visi :
Ceiling :
>= 8 km
>= 3000ft
5 to 8 km
1000 to 3000 ft
1500m to 5 km
500 to 1000 ft
800 to 1500m
200 to 500 ft
< 800m
< 200 ft
Symbols :   Thunderstorms  Fog  Heavy snow  Heavy precipitations  Wind > 20 kt
SIGMETs :     Misc.  Thunderstorms  Icing  Turbulence  Mountain Waves  Volcanic Ashes







- Airport Elevation : 123 ft
- IATA code : BLQ


LIPE - Bologna Guglielmo Marconi

CURRENT METAR :
  • 301620Z 08007KT 050V120 CAVOK 18/03 Q1013

EXPIRED METARs :
  • 301550Z 07006KT 030V130 CAVOK 18/03 Q1014
  • 301520Z 08005KT 040V180 9999 FEW060 18/03 Q1014
  • 301450Z 12005KT 050V210 9999 SCT060 19/04 Q1014
  • 301420Z VRB06KT 9999 SCT060 19/05 Q1014
  • 301350Z 12009KT 060V220 9999 SCT060 18/03 Q1014

TAF TAF LIPE
Valid from the 30 at 12:00 until the 01 at 12:00 UTC


301100Z 3012/0112 10010KT 9999 SCT050
BECMG 3017/3019 VRB05KT
BECMG 0108/0110 22010KT
No reported NOTAMs for that airfield.



MET'MAP, your aeronautical weather chart ! - Copyright ORBIFLY December 2007 - Disclaimer

ORBIFLY MET'MAP TEAM :

Programming & Development : Alexandra Zaïnal
Concept & Development : Baudouin d'Aumeries
Co-Development & Prog : Marc-Olivier Méhu
Technical & hardware support : Manuel Goepfert

Contact : metmap@orbifly.com




SOURCES & CREDITS :

   NOAA